Time;durP1;ratioP1;P1;durP2;ratioP2;P2;SDS_P1;SDS_P2;PMS_P1;PMS_P2;Temp;Humidity;BMP_temperature;BMP_pressure;BME280_temperature;BME280_humidity;BME280_pressure;Samples;Min_cycle;Max_cycle;Signal;HPM_P1;HPM_P2
2022/01/19 00:02:56;;;;;;;20.47;6.00;;;-0.90;99.90;;;-3.25;80.66;101904.94;10400332;28;96955;-78
2022/01/19 00:07:59;;;;;;;14.07;4.80;;;-0.90;99.90;;;-3.27;81.08;101922.34;10408772;28;96564;-78
2022/01/19 00:13:02;;;;;;;18.67;4.53;;;-1.00;99.90;;;-3.30;80.90;101911.16;10366269;27;97161;-78
2022/01/19 00:18:05;;;;;;;24.40;8.30;;;-1.00;99.90;;;-3.28;81.91;101915.44;10399658;28;96680;-77
2022/01/19 00:23:10;;;;;;;21.40;5.93;;;-1.00;99.90;;;-3.28;81.74;101925.84;10400873;27;96589;-77
2022/01/19 00:28:13;;;;;;;14.07;4.97;;;-1.00;99.90;;;-3.28;81.83;101932.78;10398206;27;96888;-78
2022/01/19 00:33:19;;;;;;;16.53;5.27;;;-1.00;99.90;;;-3.32;81.81;101938.94;10422474;27;96815;-77
2022/01/19 00:38:22;;;;;;;17.80;4.97;;;-1.10;99.90;;;-3.41;81.92;101965.16;10403025;27;96957;-77
2022/01/19 00:43:25;;;;;;;15.97;5.30;;;-1.10;99.90;;;-3.44;82.31;101954.81;10446692;27;96987;-77
2022/01/19 00:48:29;;;;;;;16.10;5.07;;;-1.20;99.90;;;-3.53;81.89;101955.91;10449046;27;96500;-77
2022/01/19 00:53:32;;;;;;;25.57;8.40;;;-1.30;99.90;;;-3.65;82.22;101964.84;10413936;27;96752;-77
2022/01/19 00:58:35;;;;;;;34.03;8.83;;;-1.30;99.90;;;-3.77;82.31;101963.34;10391873;27;96477;-78
2022/01/19 01:03:38;;;;;;;25.40;7.53;;;-1.40;99.90;;;-3.89;82.45;101945.44;10408517;28;96547;-77
2022/01/19 01:08:41;;;;;;;20.43;5.90;;;-1.50;99.90;;;-3.95;82.81;101953.38;10414763;27;96659;-77
2022/01/19 01:19:00;;;;;;;17.07;5.17;;;-1.70;99.90;;;-4.14;83.01;101932.13;10399485;27;96678;-77
2022/01/19 01:24:04;;;;;;;10.83;4.83;;;-1.80;99.90;;;-4.21;83.41;101916.69;10390907;28;96587;-78
2022/01/19 01:29:08;;;;;;;12.23;4.70;;;-1.80;99.90;;;-4.26;84.03;101906.38;10431186;27;96617;-78
2022/01/19 01:34:11;;;;;;;14.90;5.57;;;-1.90;99.90;;;-4.32;84.25;101890.94;10427953;27;96412;-77
2022/01/19 01:39:14;;;;;;;16.60;5.77;;;-1.90;99.90;;;-4.38;84.41;101878.97;10398876;27;96520;-77
2022/01/19 01:44:16;;;;;;;18.50;6.47;;;-2.00;99.90;;;-4.43;84.68;101882.56;10403152;27;96883;-78
2022/01/19 01:49:43;;;;;;;24.07;6.90;;;-2.10;99.90;;;-4.49;85.13;101882.69;10400751;27;96736;-78
2022/01/19 01:54:46;;;;;;;24.20;7.50;;;-2.10;99.90;;;-4.54;84.96;101887.09;10438418;27;96456;-78
2022/01/19 01:59:49;;;;;;;23.70;6.37;;;-2.20;99.90;;;-4.61;85.14;101876.84;10411218;27;96591;-78
2022/01/19 02:04:52;;;;;;;13.30;4.83;;;-2.20;99.90;;;-4.65;85.24;101863.97;10390621;27;97831;-78
2022/01/19 02:09:59;;;;;;;13.10;4.77;;;-2.30;99.90;;;-4.68;85.41;101840.66;10399037;27;96486;-78
2022/01/19 02:25:57;;;;;;;27.23;5.30;;;-2.30;99.90;;;-4.70;85.99;101840.69;10417778;27;96523;-78
2022/01/19 02:41:26;;;;;;;17.97;4.73;;;-2.40;99.90;;;-4.64;86.87;101837.13;10384077;27;96621;-78
2022/01/19 02:51:35;;;;;;;21.83;4.93;;;-2.30;99.90;;;-4.60;87.06;101825.81;10425377;27;96740;-78
2022/01/19 02:56:40;;;;;;;21.70;5.83;;;-2.30;99.90;;;-4.63;86.70;101824.13;10410280;27;96688;-78
2022/01/19 03:12:19;;;;;;;17.37;5.20;;;-2.30;99.90;;;-4.64;87.02;101812.03;10396962;27;96661;-77
2022/01/19 03:17:22;;;;;;;18.00;4.93;;;-2.40;99.90;;;-4.69;87.28;101802.63;10407918;27;98433;-77
2022/01/19 03:22:33;;;;;;;17.97;5.57;;;-2.40;99.90;;;-4.75;87.16;101798.44;10423058;27;98080;-77
2022/01/19 03:27:36;;;;;;;20.90;5.10;;;-2.40;99.90;;;-4.86;86.76;101793.50;10396906;28;96741;-77
2022/01/19 03:32:39;;;;;;;16.60;5.17;;;-2.50;99.90;;;-5.00;87.27;101805.84;10406426;27;96692;-77
2022/01/19 03:37:42;;;;;;;17.57;6.23;;;-2.60;99.90;;;-5.03;87.16;101807.66;10375225;28;96896;-77
2022/01/19 03:42:45;;;;;;;17.83;6.30;;;-2.60;99.90;;;-5.11;87.13;101808.63;10418305;27;96529;-77
2022/01/19 03:47:55;;;;;;;23.13;6.53;;;-2.70;99.90;;;-5.19;87.07;101810.53;10450226;27;97002;-78
2022/01/19 03:52:58;;;;;;;18.40;5.50;;;-2.80;99.90;;;-5.26;87.30;101811.53;10423647;27;96818;-77
2022/01/19 03:58:01;;;;;;;16.63;6.07;;;-2.80;99.90;;;-5.34;87.29;101817.72;10411547;27;96609;-77
2022/01/19 04:03:06;;;;;;;13.63;5.13;;;-2.90;99.90;;;-5.42;87.11;101815.28;10372614;28;96536;-78
2022/01/19 04:08:09;;;;;;;19.57;6.63;;;-3.00;99.90;;;-5.46;87.69;101816.19;10357400;28;96531;-78
2022/01/19 04:13:25;;;;;;;24.63;7.03;;;-3.00;99.90;;;-5.50;87.81;101815.41;10367272;28;96553;-78
2022/01/19 04:18:28;;;;;;;17.23;6.23;;;-3.10;99.90;;;-5.53;88.09;101814.59;10416386;27;96550;-78
2022/01/19 04:23:30;;;;;;;20.17;6.93;;;-3.10;99.90;;;-5.61;87.87;101813.88;10447199;27;96474;-78
2022/01/19 04:28:34;;;;;;;20.23;6.50;;;-3.20;99.90;;;-5.70;88.19;101818.34;10368033;28;96433;-76
2022/01/19 04:33:41;;;;;;;20.57;6.50;;;-3.30;99.90;;;-5.78;88.32;101808.97;10396942;28;96583;-78
2022/01/19 04:44:39;;;;;;;18.43;7.37;;;-3.40;99.90;;;-5.91;88.89;101810.94;10425821;27;96568;-77
2022/01/19 05:05:29;;;;;;;36.67;9.40;;;-3.60;99.90;;;-6.14;89.23;101771.63;10377399;27;96544;-79
2022/01/19 05:15:44;;;;;;;37.57;11.53;;;-3.70;99.90;;;-6.23;88.96;101773.47;10407753;27;96633;-78
2022/01/19 05:20:47;;;;;;;27.73;8.40;;;-3.70;99.90;;;-6.29;88.89;101768.41;10438211;27;96550;-78
2022/01/19 05:25:50;;;;;;;22.17;5.87;;;-3.80;99.90;;;-6.36;88.95;101782.28;10440891;27;96563;-78
2022/01/19 05:30:59;;;;;;;26.43;8.70;;;-3.90;99.90;;;-6.38;88.95;101784.03;10430503;27;97435;-78
2022/01/19 05:36:03;;;;;;;23.13;7.90;;;-3.90;99.90;;;-6.37;89.67;101783.16;10436411;27;96609;-78
2022/01/19 05:41:06;;;;;;;40.07;11.43;;;-3.90;99.90;;;-6.38;89.58;101778.84;10424272;27;96673;-78
2022/01/19 05:46:09;;;;;;;36.43;12.03;;;-3.90;99.90;;;-6.35;89.63;101771.06;10411089;27;97094;-78
2022/01/19 05:51:12;;;;;;;35.93;9.87;;;-3.90;99.90;;;-6.35;89.60;101763.31;10423983;27;97668;-78
2022/01/19 05:56:15;;;;;;;37.37;11.40;;;-3.90;99.90;;;-6.37;90.06;101775.38;10417115;28;96520;-77
2022/01/19 06:01:18;;;;;;;33.87;9.47;;;-3.90;99.90;;;-6.40;90.04;101772.00;10414131;27;96584;-76
2022/01/19 06:06:21;;;;;;;23.00;8.03;;;-4.00;99.90;;;-6.45;90.17;101782.41;10382145;28;96626;-77
2022/01/19 06:11:24;;;;;;;18.73;7.27;;;-4.00;99.90;;;-6.48;90.38;101777.28;10416538;27;96534;-78
2022/01/19 06:16:27;;;;;;;27.83;6.87;;;-4.10;99.90;;;-6.54;90.17;101778.22;10390571;27;96647;-79
2022/01/19 06:21:31;;;;;;;38.90;9.93;;;-4.10;99.90;;;-6.53;89.83;101792.03;10399051;27;96557;-79
2022/01/19 06:26:35;;;;;;;19.07;7.40;;;-4.10;99.90;;;-6.55;90.10;101792.00;10396468;28;96643;-78
2022/01/19 06:31:39;;;;;;;22.13;8.73;;;-4.10;99.90;;;-6.56;90.21;101773.94;10376405;27;96514;-77
2022/01/19 06:36:42;;;;;;;27.13;9.87;;;-4.20;99.90;;;-6.59;90.12;101764.50;10410392;27;96522;-81
2022/01/19 06:41:45;;;;;;;21.50;8.30;;;-4.20;99.90;;;-6.61;90.52;101768.81;10414056;27;96763;-82
2022/01/19 06:46:48;;;;;;;18.03;5.97;;;-4.20;99.90;;;-6.60;90.90;101754.16;10403040;27;96520;-80
2022/01/19 06:51:52;;;;;;;16.43;6.10;;;-4.20;99.90;;;-6.58;90.07;101752.44;10400861;27;96581;-79
2022/01/19 06:56:54;;;;;;;18.77;6.17;;;-4.20;99.90;;;-6.54;90.95;101754.94;10369236;28;96825;-77
2022/01/19 07:01:57;;;;;;;27.90;8.63;;;-4.20;99.90;;;-6.43;90.41;101747.03;10414912;27;96991;-77
2022/01/19 07:07:00;;;;;;;25.10;9.83;;;-4.10;99.90;;;-6.07;91.38;101757.69;10438358;27;96616;-81
2022/01/19 07:12:04;;;;;;;36.70;9.50;;;-4.00;99.90;;;-5.60;91.20;101750.84;10416176;27;96444;-81
2022/01/19 07:17:07;;;;;;;20.63;7.47;;;-3.80;99.90;;;-5.16;91.51;101743.09;10413119;27;97556;-80
2022/01/19 07:22:10;;;;;;;25.83;8.50;;;-3.60;99.90;;;-4.77;91.62;101735.38;10397027;27;96757;-82
2022/01/19 07:27:13;;;;;;;31.10;10.17;;;-3.30;99.90;;;-4.40;91.04;101735.41;10396142;28;96533;-79
2022/01/19 07:32:16;;;;;;;42.03;14.60;;;-3.00;99.90;;;-4.07;91.22;101725.97;10423488;27;96888;-80
2022/01/19 07:37:19;;;;;;;50.87;18.10;;;-2.70;99.90;;;-3.86;90.40;101721.13;10397814;27;96454;-79
2022/01/19 07:42:22;;;;;;;59.67;21.47;;;-2.40;99.90;;;-3.73;89.71;101713.88;10392657;27;96516;-78
2022/01/19 07:47:27;;;;;;;50.17;19.03;;;-2.10;99.90;;;-3.52;89.40;101703.78;10435093;27;96705;-78
2022/01/19 07:52:30;;;;;;;34.63;14.60;;;-1.80;99.90;;;-3.22;89.52;101714.22;10391117;28;98052;-78
2022/01/19 07:57:33;;;;;;;38.43;15.33;;;-1.50;99.90;;;-2.86;89.54;101701.91;10387706;27;96549;-78
2022/01/19 08:02:36;;;;;;;35.80;12.93;;;-1.20;99.90;;;-2.61;89.10;101711.56;10429954;27;96599;-78
2022/01/19 08:07:39;;;;;;;31.37;12.50;;;-1.00;99.90;;;-2.37;88.54;101700.41;10422527;27;96318;-78
2022/01/19 08:12:43;;;;;;;26.30;13.67;;;-0.70;99.90;;;-2.23;87.30;101694.72;10373019;27;96746;-78
2022/01/19 08:17:48;;;;;;;40.93;17.13;;;-0.50;99.90;;;-2.04;86.48;101690.66;10396376;27;96634;-78
2022/01/19 08:22:50;;;;;;;33.83;15.90;;;-0.20;99.90;;;-1.77;85.57;101681.03;10411880;28;96568;-78
2022/01/19 08:27:53;;;;;;;31.70;14.37;;;0.00;99.90;;;-1.49;85.17;101693.97;10421329;27;96419;-78
2022/01/19 08:32:56;;;;;;;31.70;13.43;;;0.40;99.90;;;-1.15;84.01;101692.72;10400730;27;96544;-78
2022/01/19 08:37:59;;;;;;;28.00;12.53;;;0.80;99.90;;;-0.82;82.44;101690.63;10420128;27;96849;-78
2022/01/19 08:43:02;;;;;;;25.00;12.00;;;1.10;99.90;;;-0.41;81.88;101680.31;10417277;27;96591;-78
2022/01/19 08:48:06;;;;;;;26.67;10.80;;;1.50;99.90;;;0.01;80.22;101680.34;10402338;27;97107;-78
2022/01/19 08:53:08;;;;;;;27.57;13.47;;;1.90;99.90;;;0.52;79.23;101673.78;10418484;27;97836;-78
2022/01/19 08:58:13;;;;;;;25.67;12.03;;;2.30;99.90;;;1.03;77.10;101654.03;10419456;27;97904;-78
2022/01/19 09:03:17;;;;;;;27.93;11.13;;;2.70;99.90;;;1.69;76.06;101653.50;10405588;27;96535;-79
2022/01/19 09:08:20;;;;;;;22.37;10.13;;;3.20;99.90;;;2.32;73.15;101659.03;10406083;27;96542;-79
2022/01/19 09:13:24;;;;;;;25.03;12.17;;;3.70;99.90;;;2.35;68.97;101658.88;10404108;27;98427;-80
2022/01/19 09:18:28;;;;;;;32.53;13.20;;;3.90;99.90;;;1.94;68.38;101647.88;10435445;27;96647;-79
2022/01/19 09:23:35;;;;;;;29.33;12.77;;;3.70;99.90;;;2.05;69.87;101650.81;10404251;27;96607;-81
2022/01/19 09:28:38;;;;;;;21.33;11.13;;;3.80;99.90;;;2.81;68.74;101638.91;10437977;27;96558;-80
2022/01/19 09:34:15;;;;;;;31.00;14.10;;;4.20;99.90;;;3.52;65.90;101627.13;10395805;27;96626;-82
2022/01/19 09:39:24;;;;;;;40.27;20.73;;;4.70;99.90;;;4.23;64.74;101624.69;10423779;27;96505;-82
2022/01/19 09:44:31;;;;;;;29.57;13.10;;;5.30;99.90;;;4.91;61.92;101602.94;10418618;27;97433;-81
2022/01/19 09:49:34;;;;;;;25.00;11.40;;;5.90;99.90;;;5.41;59.49;101588.31;10418845;27;96524;-80
2022/01/19 09:54:37;;;;;;;29.73;14.50;;;6.40;99.90;;;5.81;57.71;101575.94;10393212;27;96525;-81
2022/01/19 09:59:40;;;;;;;22.53;11.00;;;6.80;99.90;;;6.09;56.28;101561.75;10433944;27;96883;-81
2022/01/19 10:04:47;;;;;;;19.90;9.80;;;7.20;99.90;;;6.10;55.85;101545.81;10411936;27;96693;-79
2022/01/19 10:10:04;;;;;;;20.73;10.13;;;7.30;98.10;;;5.43;55.18;101533.69;10384894;28;98244;-82
2022/01/19 10:20:30;;;;;;;22.95;9.20;;;6.80;94.10;;;4.24;56.38;101514.06;10404608;27;96515;-80
2022/01/19 10:25:50;;;;;;;20.97;9.90;;;6.40;92.30;;;4.01;57.32;101497.06;10400535;28;96471;-80
2022/01/19 10:30:53;;;;;;;17.73;8.87;;;6.00;92.30;;;3.71;57.85;101501.56;10434150;27;96701;-81
2022/01/19 10:35:58;;;;;;;18.83;9.47;;;5.70;91.70;;;3.25;58.24;101488.53;10401635;28;96468;-78
2022/01/19 10:41:05;;;;;;;22.40;9.60;;;5.40;90.50;;;2.82;60.04;101487.50;10408379;27;98203;-77
2022/01/19 10:46:31;;;;;;;23.70;10.10;;;5.00;91.30;;;2.45;61.04;101472.97;10431813;27;98317;-77
2022/01/19 10:51:45;;;;;;;21.63;9.13;;;4.60;91.60;;;2.28;62.36;101466.88;10421601;27;96566;-77
2022/01/19 10:56:57;;;;;;;26.33;9.03;;;4.50;92.50;;;2.86;63.62;101450.47;10433029;27;96579;-77
2022/01/19 11:02:03;;;;;;;25.40;8.33;;;4.80;94.00;;;4.08;62.97;101425.66;10406932;27;96586;-79
2022/01/19 11:07:09;;;;;;;19.40;8.17;;;5.60;94.40;;;5.30;59.94;101407.97;10405350;27;96487;-77
2022/01/19 11:12:16;;;;;;;18.23;9.20;;;6.60;94.30;;;5.79;56.17;101409.88;10398366;28;96543;-81
2022/01/19 11:17:19;;;;;;;16.40;7.47;;;7.20;91.50;;;6.39;55.79;101381.88;10396357;27;96836;-78
2022/01/19 11:22:36;;;;;;;18.63;9.20;;;7.70;90.80;;;6.63;52.52;101388.00;10396812;28;96681;-78
2022/01/19 11:27:43;;;;;;;25.90;9.83;;;8.10;84.60;;;6.24;51.59;101361.84;10411508;27;96665;-80
2022/01/19 11:33:18;;;;;;;22.73;9.07;;;7.90;81.90;;;5.46;53.08;101354.19;10412616;27;97106;-77
2022/01/19 11:38:49;;;;;;;18.13;8.40;;;7.40;80.40;;;4.76;54.66;101341.41;10392889;27;96577;-77
2022/01/19 11:43:58;;;;;;;25.23;9.70;;;6.80;79.90;;;4.20;56.08;101338.94;10415853;27;96843;-78
2022/01/19 11:49:05;;;;;;;18.73;9.38;;;6.30;81.20;;;3.84;57.31;101329.00;10457153;27;96462;-78
2022/01/19 11:54:16;;;;;;;22.93;10.67;;;5.90;81.90;;;3.61;58.63;101321.69;10438467;27;96536;-78
2022/01/19 11:59:20;;;;;;;24.50;11.57;;;5.70;83.60;;;3.38;59.63;101309.97;10394478;27;96522;-78
2022/01/19 12:04:24;;;;;;;22.77;10.30;;;5.40;84.40;;;3.25;60.37;101303.78;10415484;28;96519;-78
2022/01/19 12:09:27;;;;;;;31.17;11.23;;;5.30;85.40;;;3.17;60.77;101291.09;10414636;27;96660;-78
2022/01/19 12:14:38;;;;;;;30.37;13.73;;;5.10;86.30;;;3.17;61.37;101288.47;10453485;27;96571;-78
2022/01/19 12:19:44;;;;;;;27.55;12.80;;;5.10;87.20;;;3.14;61.16;101284.28;10439831;27;96511;-78
2022/01/19 12:25:11;;;;;;;30.17;12.73;;;5.10;87.60;;;3.15;62.06;101285.09;10454841;27;96563;-78
2022/01/19 12:30:18;;;;;;;29.43;11.97;;;5.10;88.30;;;3.15;62.08;101275.44;10444325;27;96572;-78
2022/01/19 12:35:31;;;;;;;26.20;12.07;;;5.10;88.60;;;3.15;61.86;101262.31;10435811;27;96450;-78
2022/01/19 12:40:45;;;;;;;34.03;11.27;;;5.10;88.80;;;3.19;62.21;101261.19;10428002;27;96400;-78
2022/01/19 12:45:51;;;;;;;35.00;13.90;;;5.10;89.10;;;3.23;61.93;101253.94;10413955;27;97852;-78
2022/01/19 12:50:54;;;;;;;21.83;10.20;;;5.10;89.10;;;3.30;61.93;101239.53;10430437;27;96604;-78
2022/01/19 12:56:05;;;;;;;23.80;10.33;;;5.20;89.30;;;3.35;60.67;101242.69;10438192;27;96642;-79
2022/01/19 13:01:10;;;;;;;20.60;8.23;;;5.20;88.10;;;3.34;60.81;101221.78;10435800;27;96517;-78
2022/01/19 13:06:16;;;;;;;11.47;5.30;;;5.20;87.60;;;3.37;60.54;101219.81;10407823;27;96522;-78
2022/01/19 13:11:41;;;;;;;12.27;5.07;;;5.20;87.90;;;3.36;60.51;101201.47;10428063;27;96767;-78
2022/01/19 13:16:51;;;;;;;11.17;5.80;;;5.20;87.70;;;3.35;60.73;101195.38;10417437;27;96658;-78
2022/01/19 13:22:05;;;;;;;18.73;8.13;;;5.20;87.90;;;3.35;61.56;101195.38;10438662;27;96567;-78
2022/01/19 13:27:10;;;;;;;19.17;9.30;;;5.30;88.40;;;3.31;61.83;101188.66;10461580;27;96716;-80
2022/01/19 13:32:19;;;;;;;17.63;8.67;;;5.30;88.70;;;3.23;62.15;101185.66;10389213;28;96764;-78
2022/01/19 13:37:33;;;;;;;28.67;9.73;;;5.20;89.20;;;3.22;62.27;101176.09;10429420;27;96922;-80
2022/01/19 13:42:42;;;;;;;19.43;9.13;;;5.20;89.10;;;3.21;62.58;101167.38;10430569;27;98219;-79
2022/01/19 13:53:34;;;;;;;19.58;8.73;;;5.10;89.60;;;3.21;62.74;101153.41;10410230;28;96596;-77
2022/01/19 13:58:50;;;;;;;30.23;10.60;;;5.10;90.00;;;3.22;62.51;101157.72;10403647;27;96511;-77
2022/01/19 14:03:57;;;;;;;48.10;20.73;;;5.10;90.10;;;3.22;62.62;101150.66;10435622;27;97827;-77
2022/01/19 14:09:10;;;;;;;24.03;12.20;;;5.10;90.10;;;3.20;62.57;101146.47;10400278;27;96653;-77
2022/01/19 14:14:20;;;;;;;16.97;8.23;;;5.10;90.20;;;3.14;62.88;101141.59;10417918;27;96551;-77
2022/01/19 14:19:27;;;;;;;14.80;6.93;;;5.10;90.20;;;3.05;63.08;101129.03;10383339;28;96641;-77
2022/01/19 14:24:58;;;;;;;71.43;30.07;;;5.00;90.30;;;2.95;63.40;101134.88;10335493;28;96331;-81
2022/01/19 14:30:32;;;;;;;174.50;75.23;;;4.90;90.30;;;2.82;63.92;101128.72;10379580;28;96664;-80
2022/01/19 14:35:41;;;;;;;38.47;15.93;;;4.80;90.40;;;2.68;64.09;101118.22;10407043;27;98148;-78
2022/01/19 14:40:49;;;;;;;31.63;14.63;;;4.70;90.60;;;2.55;64.84;101107.63;10394216;28;96652;-78
2022/01/19 14:46:04;;;;;;;22.87;9.60;;;4.60;90.90;;;2.39;64.97;101106.88;10401236;28;96860;-77
2022/01/19 14:51:26;;;;;;;21.60;8.47;;;4.50;90.90;;;2.22;65.66;101096.56;10391076;28;97080;-79
2022/01/19 14:56:36;;;;;;;23.27;9.13;;;4.30;91.10;;;2.03;65.90;101096.81;10389849;28;96522;-79
2022/01/19 15:01:43;;;;;;;30.57;10.70;;;4.20;91.60;;;1.81;66.71;101098.09;10351833;28;96703;-78
2022/01/19 15:06:48;;;;;;;30.90;13.13;;;4.00;91.60;;;1.63;66.94;101095.72;10344406;28;98329;-78
2022/01/19 15:11:51;;;;;;;38.67;14.47;;;3.80;92.00;;;1.41;67.73;101090.84;10324559;28;96560;-78
2022/01/19 15:16:54;;;;;;;24.17;11.27;;;3.60;92.70;;;1.18;68.41;101085.13;10401213;27;96579;-79
2022/01/19 15:21:57;;;;;;;24.77;9.27;;;3.40;93.30;;;1.00;69.24;101088.78;10420834;27;97723;-78
2022/01/19 15:27:00;;;;;;;27.70;11.33;;;3.20;93.90;;;0.75;69.37;101077.03;10422316;27;96477;-77
2022/01/19 15:32:04;;;;;;;41.43;13.10;;;3.00;94.20;;;0.46;70.16;101069.91;10431513;27;98251;-79
2022/01/19 15:37:07;;;;;;;46.60;15.47;;;2.70;95.10;;;0.18;70.98;101066.16;10409650;27;98343;-79
2022/01/19 15:42:10;;;;;;;61.37;22.03;;;2.50;96.30;;;-0.09;71.67;101057.97;10384469;27;96473;-80
2022/01/19 15:47:14;;;;;;;73.47;23.43;;;2.20;96.50;;;-0.35;72.46;101048.88;10384008;27;96537;-78
2022/01/19 15:52:17;;;;;;;84.47;28.40;;;2.00;97.30;;;-0.57;73.35;101056.06;10434047;27;98530;-81
2022/01/19 15:57:20;;;;;;;99.57;32.20;;;1.70;99.20;;;-0.76;73.95;101044.84;10429766;27;96529;-79
2022/01/19 16:02:23;;;;;;;102.00;35.60;;;1.50;99.10;;;-0.92;74.46;101044.72;10417960;27;96454;-79
2022/01/19 16:07:26;;;;;;;49.40;20.20;;;1.40;99.90;;;-1.01;75.47;101047.81;10440147;27;96563;-79
2022/01/19 16:12:29;;;;;;;74.97;29.93;;;1.30;99.90;;;-1.13;75.98;101050.06;10413563;28;96625;-76
2022/01/19 16:17:32;;;;;;;79.00;34.30;;;1.20;99.90;;;-1.28;76.18;101045.56;10419440;27;96500;-78
2022/01/19 16:27:57;;;;;;;34.60;16.10;;;0.90;99.90;;;-1.62;77.27;101021.06;10393981;28;96784;-78
2022/01/19 16:33:00;;;;;;;31.63;13.50;;;0.70;99.90;;;-1.73;78.35;101015.50;10402437;27;96480;-78
2022/01/19 16:38:03;;;;;;;40.67;15.83;;;0.60;99.90;;;-1.81;78.71;101008.94;10391667;27;96893;-79
2022/01/19 16:43:06;;;;;;;98.20;35.77;;;0.50;99.90;;;-1.88;79.31;101004.00;10395117;27;96547;-79
2022/01/19 16:48:17;;;;;;;68.60;24.40;;;0.40;99.90;;;-1.99;79.36;100994.97;10416109;27;98233;-78
2022/01/19 16:53:23;;;;;;;51.10;18.00;;;0.30;99.90;;;-2.16;79.36;100998.31;10416134;27;96466;-78
2022/01/19 16:58:30;;;;;;;41.67;15.90;;;0.10;99.90;;;-2.31;79.61;100999.00;10427573;27;96686;-78
2022/01/19 17:03:34;;;;;;;69.57;28.63;;;0.00;99.90;;;-2.42;79.91;101004.66;10425783;27;97754;-78
2022/01/19 17:08:39;;;;;;;73.17;30.30;;;-0.10;99.90;;;-2.53;80.26;100988.66;10447882;27;98248;-79
2022/01/19 17:13:53;;;;;;;71.23;30.67;;;-0.20;99.90;;;-2.66;80.84;100988.31;10418473;27;96502;-79
2022/01/19 17:18:56;;;;;;;71.10;30.33;;;-0.30;99.90;;;-2.78;81.02;100997.47;10437125;27;96739;-79
2022/01/19 17:23:59;;;;;;;79.40;30.10;;;-0.40;99.90;;;-2.90;81.14;100997.16;10443440;27;96541;-79
2022/01/19 17:29:02;;;;;;;78.63;30.13;;;-0.50;99.90;;;-3.01;81.57;100979.38;10402535;27;96645;-79
2022/01/19 17:34:05;;;;;;;77.43;31.67;;;-0.60;99.90;;;-3.08;82.28;100965.78;10435188;27;96625;-78
2022/01/19 17:39:08;;;;;;;74.37;27.00;;;-0.70;99.90;;;-3.15;82.59;100979.09;10394421;28;97040;-78
2022/01/19 17:44:12;;;;;;;70.00;27.23;;;-0.80;99.90;;;-3.24;82.58;100981.16;10415147;27;97070;-77
2022/01/19 17:49:46;;;;;;;61.77;25.97;;;-0.90;99.90;;;-3.30;82.91;100980.53;10443439;27;96539;-77
2022/01/19 17:54:47;;;;;;;63.85;27.75;;;-0.90;99.90;;;-3.39;83.27;100992.16;10425411;27;96520;-77
2022/01/19 17:59:54;;;;;;;69.10;27.77;;;-1.00;99.90;;;-3.46;83.51;100969.06;10460475;27;97212;-77
2022/01/19 18:04:57;;;;;;;77.50;31.10;;;-1.10;99.90;;;-3.54;83.63;100972.81;10425043;27;96598;-77
2022/01/19 18:10:02;;;;;;;97.07;37.87;;;-1.20;99.90;;;-3.58;83.81;100973.00;10431507;27;96645;-78
2022/01/19 18:15:05;;;;;;;86.97;31.57;;;-1.20;99.90;;;-3.65;84.29;100966.34;10417502;28;96687;-77
2022/01/19 18:20:09;;;;;;;55.20;20.90;;;-1.30;99.90;;;-3.69;84.87;100963.00;10416614;28;96658;-77
2022/01/19 18:25:12;;;;;;;96.63;35.23;;;-1.30;99.90;;;-3.74;84.79;100964.94;10418546;28;96385;-77
2022/01/19 18:30:15;;;;;;;82.63;30.13;;;-1.40;99.90;;;-3.80;84.82;100960.81;10414481;28;97142;-77
2022/01/19 18:35:19;;;;;;;78.47;26.00;;;-1.40;99.90;;;-3.79;85.20;100959.06;10399646;27;98545;-77
2022/01/19 18:40:29;;;;;;;74.93;25.33;;;-1.50;99.90;;;-3.81;85.48;100953.09;10382466;28;96688;-77
2022/01/19 18:45:33;;;;;;;59.57;23.70;;;-1.50;99.90;;;-3.81;86.35;100953.09;10417635;27;96497;-77
2022/01/19 18:50:36;;;;;;;63.10;21.97;;;-1.50;99.90;;;-3.81;86.74;100947.88;10400597;27;96519;-76
2022/01/19 18:55:40;;;;;;;60.23;21.53;;;-1.50;99.90;;;-3.81;87.18;100945.28;10449523;27;96633;-76
2022/01/19 19:00:48;;;;;;;49.97;18.13;;;-1.60;99.90;;;-3.81;87.11;100933.16;10408221;27;98113;-77
2022/01/19 19:05:51;;;;;;;48.70;18.90;;;-1.60;99.90;;;-3.81;87.32;100927.13;10380809;28;96642;-77
2022/01/19 19:16:01;;;;;;;51.40;21.47;;;-1.60;99.90;;;-3.91;87.33;100905.84;10395306;27;96733;-77
2022/01/19 19:21:04;;;;;;;49.93;21.13;;;-1.60;99.90;;;-3.98;87.41;100908.72;10446853;27;96431;-76
2022/01/19 19:26:07;;;;;;;61.13;25.60;;;-1.70;99.90;;;-4.00;87.65;100890.63;10389183;28;96588;-77
2022/01/19 19:31:10;;;;;;;65.80;27.23;;;-1.70;99.90;;;-4.04;87.36;100895.06;10377767;27;98452;-76
2022/01/19 19:36:13;;;;;;;48.27;20.90;;;-1.70;99.90;;;-4.06;87.87;100886.50;10413784;27;97443;-81
2022/01/19 19:41:19;;;;;;;42.63;17.03;;;-1.70;99.90;;;-4.11;88.11;100875.44;10397697;28;96763;-80
2022/01/19 19:46:23;;;;;;;44.77;19.20;;;-1.80;99.90;;;-4.14;88.03;100861.72;10401844;27;97302;-80
2022/01/19 19:51:28;;;;;;;43.03;18.47;;;-1.80;99.90;;;-4.17;88.11;100844.53;10426289;27;97254;-79
2022/01/19 19:56:33;;;;;;;42.53;17.67;;;-1.90;99.90;;;-4.20;88.39;100836.00;10426889;27;96585;-79
2022/01/19 20:01:39;;;;;;;45.50;17.53;;;-1.90;99.90;;;-4.24;88.44;100834.47;10391322;28;96715;-80
2022/01/19 20:06:42;;;;;;;41.07;17.77;;;-1.90;99.90;;;-4.26;88.79;100831.06;10381210;28;96575;-81
2022/01/19 20:11:46;;;;;;;33.90;14.50;;;-2.00;99.90;;;-4.32;88.88;100825.22;10372411;28;96799;-80
2022/01/19 20:16:49;;;;;;;43.10;17.23;;;-2.00;99.90;;;-4.29;89.03;100820.81;10388119;28;96839;-80
2022/01/19 20:21:52;;;;;;;49.13;20.37;;;-2.00;99.90;;;-4.32;89.38;100822.63;10389591;27;97621;-80
2022/01/19 20:26:55;;;;;;;56.57;21.03;;;-2.10;99.90;;;-4.32;89.57;100811.38;10377637;28;97655;-80
2022/01/19 20:31:59;;;;;;;45.50;20.20;;;-2.10;99.90;;;-4.36;89.51;100796.84;10421121;27;98040;-80
2022/01/19 20:37:03;;;;;;;56.13;23.23;;;-2.10;99.90;;;-4.43;89.72;100780.69;10408639;27;96782;-81
2022/01/19 20:42:06;;;;;;;29.60;12.63;;;-2.10;99.90;;;-4.50;89.81;100780.94;10414497;28;96580;-78
2022/01/19 20:47:10;;;;;;;36.87;15.23;;;-2.20;99.90;;;-4.52;90.01;100786.19;10380841;28;96712;-78
2022/01/19 20:52:13;;;;;;;37.13;14.60;;;-2.20;99.90;;;-4.54;89.95;100779.38;10397054;27;96665;-78
2022/01/19 20:57:16;;;;;;;35.23;15.47;;;-2.20;99.90;;;-4.57;89.87;100776.00;10411127;28;96541;-77
2022/01/19 21:02:20;;;;;;;42.10;15.43;;;-2.30;99.90;;;-4.62;90.01;100770.16;10417571;27;98439;-78
2022/01/19 21:07:23;;;;;;;39.27;13.43;;;-2.30;99.90;;;-4.68;90.13;100762.59;10383443;27;96591;-79
2022/01/19 21:12:26;;;;;;;36.83;13.77;;;-2.40;99.90;;;-4.75;90.24;100766.31;10426512;27;96807;-78
2022/01/19 21:17:29;;;;;;;33.93;14.17;;;-2.40;99.90;;;-4.81;90.22;100753.56;10395797;28;96672;-78
2022/01/19 21:22:32;;;;;;;36.07;14.00;;;-2.50;99.90;;;-4.86;90.19;100743.38;10385904;27;96705;-78
2022/01/19 21:27:35;;;;;;;40.83;15.90;;;-2.50;99.90;;;-4.89;90.37;100738.31;10388388;27;98365;-77
2022/01/19 21:32:40;;;;;;;42.97;16.07;;;-2.50;99.90;;;-4.91;90.33;100721.13;10392093;27;96845;-78
2022/01/19 21:37:45;;;;;;;34.30;14.07;;;-2.60;99.90;;;-4.96;90.58;100730.81;10372645;28;96627;-78
2022/01/19 21:42:49;;;;;;;35.63;12.83;;;-2.60;99.90;;;-5.02;90.62;100731.03;10409159;27;98381;-78
2022/01/19 21:47:52;;;;;;;44.57;17.13;;;-2.70;99.90;;;-5.05;90.69;100719.03;10394695;28;96440;-78
2022/01/19 21:52:55;;;;;;;44.83;15.20;;;-2.70;99.90;;;-5.07;90.58;100712.22;10413021;27;96615;-78
2022/01/19 21:57:58;;;;;;;39.70;15.37;;;-2.70;99.90;;;-5.10;91.11;100718.34;10396275;28;96749;-78
2022/01/19 22:03:02;;;;;;;62.83;18.03;;;-2.70;99.90;;;-5.13;90.79;100716.72;10366555;27;96527;-78
2022/01/19 22:08:07;;;;;;;43.67;15.80;;;-2.80;99.90;;;-5.16;90.87;100709.06;10395075;28;96514;-78
2022/01/19 22:13:11;;;;;;;55.47;18.00;;;-2.80;99.90;;;-5.20;91.22;100707.50;10417288;27;98118;-78
2022/01/19 22:18:14;;;;;;;59.87;18.53;;;-2.80;99.90;;;-5.26;91.17;100707.72;10431087;27;96611;-78